Time;durP1;ratioP1;P1;durP2;ratioP2;P2;SDS_P1;SDS_P2;PMS_P1;PMS_P2;Temp;Humidity;BMP_temperature;BMP_pressure;BME280_temperature;BME280_humidity;BME280_pressure;Samples;Min_cycle;Max_cycle;Signal;HPM_P1;HPM_P2
2022/09/07 00:03:56;;;;;;;17.90;11.55;;;;;;;13.12;97.40;98117.81;10414365;28;20032;-57
2022/09/07 00:08:55;;;;;;;16.92;10.60;;;;;;;13.07;97.65;98111.75;10414625;28;20063;-57
2022/09/07 00:13:55;;;;;;;16.15;10.38;;;;;;;13.04;97.58;98114.38;10415033;28;20060;-57
2022/09/07 00:18:56;;;;;;;18.80;12.60;;;;;;;12.96;98.18;98115.31;10414590;28;20068;-57
2022/09/07 00:23:55;;;;;;;19.80;12.63;;;;;;;12.88;98.05;98110.09;10395789;28;20138;-57
2022/09/07 00:28:59;;;;;;;17.63;13.25;;;;;;;12.69;98.79;98112.78;10414464;28;20064;-57
2022/09/07 00:34:00;;;;;;;17.90;12.20;;;;;;;12.59;98.60;98105.88;10414578;28;20071;-57
2022/09/07 00:38:59;;;;;;;17.83;11.43;;;;;;;12.50;98.84;98111.13;10398087;28;20068;-57
2022/09/07 00:44:36;;;;;;;19.67;12.95;;;;;;;12.50;98.90;98118.94;10422490;28;20036;-57
2022/09/07 00:49:38;;;;;;;22.02;13.13;;;;;;;12.45;99.01;98121.53;10421875;28;20076;-57
2022/09/07 00:54:45;;;;;;;19.73;13.52;;;;;;;12.44;99.11;98122.41;10421332;28;20067;-57
2022/09/07 00:59:47;;;;;;;20.73;14.38;;;;;;;12.44;99.12;98118.97;10421037;28;20060;-57
2022/09/07 01:04:55;;;;;;;20.52;14.18;;;;;;;12.45;98.94;98116.34;10421035;28;20075;-57
2022/09/07 01:09:55;;;;;;;23.85;15.13;;;;;;;12.47;99.55;98108.53;10420646;28;20060;-57
2022/09/07 01:14:54;;;;;;;21.90;15.35;;;;;;;12.47;99.28;98108.53;10420685;28;20064;-57
2022/09/07 01:20:25;;;;;;;20.52;15.02;;;;;;;12.49;99.50;98112.00;10421099;28;20050;-57
2022/09/07 01:25:24;;;;;;;23.13;14.35;;;;;;;12.47;99.61;98106.78;10419935;28;20382;-56
2022/09/07 01:30:24;;;;;;;21.42;14.18;;;;;;;12.47;99.53;98096.38;10420604;28;20032;-57
2022/09/07 01:35:41;;;;;;;23.27;15.82;;;;;;;12.45;99.45;98094.66;10420058;28;20067;-57
2022/09/07 01:41:24;;;;;;;21.30;14.73;;;;;;;12.38;99.92;98104.22;10420290;28;20056;-57
2022/09/07 01:46:27;;;;;;;23.27;15.15;;;;;;;12.29;100.00;98089.47;10251379;28;20074;-57
2022/09/07 01:51:31;;;;;;;24.77;15.38;;;;;;;12.32;100.00;98090.34;10381055;28;20553;-57
2022/09/07 01:56:36;;;;;;;23.48;14.43;;;;;;;12.20;100.00;98091.22;10400801;28;20129;-57
2022/09/07 02:01:43;;;;;;;25.05;17.00;;;;;;;12.17;100.00;98094.69;10418944;28;20154;-56
2022/09/07 02:07:04;;;;;;;23.52;15.00;;;;;;;12.04;100.00;98088.66;10418213;28;20059;-56
2022/09/07 02:12:13;;;;;;;21.70;15.07;;;;;;;11.94;100.00;98091.25;10418911;28;20504;-57
2022/09/07 02:17:23;;;;;;;23.33;17.55;;;;;;;11.87;100.00;98074.78;10418172;28;20059;-56
2022/09/07 02:22:28;;;;;;;24.80;17.23;;;;;;;11.82;100.00;98079.13;10418067;28;20060;-57
2022/09/07 02:27:53;;;;;;;22.48;16.20;;;;;;;11.80;100.00;98078.25;10417520;28;20064;-57
2022/09/07 02:32:54;;;;;;;24.90;15.07;;;;;;;11.53;100.00;98076.56;10407209;28;20067;-56
2022/09/07 02:37:55;;;;;;;35.97;15.48;;;;;;;11.29;100.00;98060.06;10416637;28;20511;-56
2022/09/07 02:42:57;;;;;;;40.63;16.23;;;;;;;11.21;100.00;98054.84;10417805;28;20064;-56
2022/09/07 02:48:21;;;;;;;24.08;15.95;;;;;;;11.18;100.00;98061.78;10417064;28;20490;-57
2022/09/07 02:53:37;;;;;;;29.40;17.15;;;;;;;11.19;100.00;98055.72;10417403;28;20068;-57
2022/09/07 02:59:02;;;;;;;28.95;16.67;;;;;;;11.26;100.00;98054.84;10416186;28;20074;-57
2022/09/07 03:04:19;;;;;;;32.88;16.50;;;;;;;11.33;100.00;98063.53;10415799;28;20075;-57
2022/09/07 03:09:24;;;;;;;32.05;17.77;;;;;;;11.36;100.00;98066.13;10415902;28;20503;-57
2022/09/07 03:14:25;;;;;;;32.35;17.25;;;;;;;11.36;100.00;98068.72;10416070;28;20063;-57
2022/09/07 03:19:24;;;;;;;31.20;17.83;;;;;;;11.35;100.00;98067.84;10415621;28;20071;-57
2022/09/07 03:24:23;;;;;;;34.63;19.35;;;;;;;11.37;100.00;98071.34;10416190;28;20503;-57
2022/09/07 03:29:22;;;;;;;33.08;18.98;;;;;;;11.40;100.00;98073.06;10415305;28;20064;-57
2022/09/07 03:34:21;;;;;;;34.08;19.17;;;;;;;11.39;100.00;98079.13;10415587;28;20044;-57
2022/09/07 03:39:22;;;;;;;34.97;19.23;;;;;;;11.39;100.00;98080.00;10415849;28;20063;-56
2022/09/07 03:44:21;;;;;;;31.63;18.20;;;;;;;11.39;100.00;98084.34;10415086;28;20075;-56
2022/09/07 03:49:20;;;;;;;30.73;18.73;;;;;;;11.34;100.00;98092.13;10397025;28;20052;-56
2022/09/07 03:54:19;;;;;;;28.65;18.15;;;;;;;11.35;100.00;98093.84;10416075;28;20024;-56
2022/09/07 03:59:18;;;;;;;30.48;17.85;;;;;;;11.17;100.00;98088.59;10415037;28;20036;-56
2022/09/07 04:04:17;;;;;;;26.02;16.55;;;;;;;11.20;100.00;98093.84;10414624;28;20328;-57
2022/09/07 04:09:16;;;;;;;28.05;16.80;;;;;;;11.15;100.00;98092.94;10414334;28;20037;-56
2022/09/07 04:14:15;;;;;;;29.73;17.27;;;;;;;11.23;100.00;98114.63;10420263;28;20063;-57
2022/09/07 04:19:14;;;;;;;29.52;17.38;;;;;;;11.28;100.00;98114.63;10404346;28;20044;-57
2022/09/07 04:24:14;;;;;;;29.17;17.20;;;;;;;11.34;100.00;98117.22;10422908;28;20029;-55
2022/09/07 04:29:13;;;;;;;33.88;18.75;;;;;;;11.39;100.00;98118.97;10421982;28;20079;-56
2022/09/07 04:34:13;;;;;;;33.80;18.67;;;;;;;11.44;100.00;98119.84;10422119;28;20083;-57
2022/09/07 04:39:12;;;;;;;32.17;19.52;;;;;;;11.56;100.00;98121.59;10422644;28;20481;-57
2022/09/07 04:44:11;;;;;;;27.23;17.90;;;;;;;11.64;100.00;98119.88;10421701;28;20407;-57
2022/09/07 04:49:10;;;;;;;31.00;20.00;;;;;;;11.75;100.00;98129.41;10420640;28;20048;-57
2022/09/07 04:54:10;;;;;;;35.33;20.95;;;;;;;11.79;100.00;98120.75;10421606;28;20071;-57
2022/09/07 04:59:09;;;;;;;37.40;22.27;;;;;;;11.92;100.00;98124.19;10420567;28;20068;-57
2022/09/07 05:04:08;;;;;;;33.63;21.80;;;;;;;12.00;100.00;98128.53;10420481;28;20046;-54
2022/09/07 05:09:09;;;;;;;35.83;24.45;;;;;;;12.08;100.00;98128.50;10418590;28;20071;-57
2022/09/07 05:14:09;;;;;;;41.90;28.92;;;;;;;12.18;100.00;98135.47;10420459;28;20056;-57
2022/09/07 05:19:11;;;;;;;41.70;27.30;;;;;;;12.25;100.00;98131.97;10402148;28;20070;-57
2022/09/07 05:24:10;;;;;;;29.90;17.77;;;;;;;12.27;100.00;98130.28;10419323;28;20071;-56
2022/09/07 05:29:09;;;;;;;34.55;24.95;;;;;;;12.36;100.00;98134.56;10419485;28;20035;-56
2022/09/07 05:34:08;;;;;;;32.50;23.85;;;;;;;12.47;100.00;98126.75;10400434;28;20460;-57
2022/09/07 05:39:07;;;;;;;31.67;26.33;;;;;;;12.71;100.00;98126.66;10419936;28;20459;-56
2022/09/07 05:44:06;;;;;;;;;;;;;;;13.03;100.00;98138.69;10401239;28;20072;-57
2022/09/07 05:49:06;;;;;;;37.85;29.25;;;;;;;13.23;100.00;98133.38;10411115;28;19950;-57
2022/09/07 05:54:05;;;;;;;36.10;29.33;;;;;;;13.44;100.00;98124.56;10418639;28;20471;-56
2022/09/07 05:59:05;;;;;;;33.33;26.27;;;;;;;13.60;100.00;98121.88;10418463;28;20071;-57
2022/09/07 06:04:03;;;;;;;;;;;;;;;13.77;99.31;98120.00;10418560;28;20079;-56
2022/09/07 06:09:02;;;;;;;30.30;24.02;;;;;;;13.95;98.46;98121.59;10415989;28;19912;-56
2022/09/07 06:14:01;;;;;;;27.08;21.17;;;;;;;14.13;97.92;98107.53;10413151;28;20052;-57
2022/09/07 06:19:05;;;;;;;25.50;19.95;;;;;;;14.41;97.45;98108.97;10411631;28;20105;-57
2022/09/07 06:24:05;;;;;;;17.58;13.63;;;;;;;14.61;96.05;98102.66;10414306;28;20075;-57
2022/09/07 06:29:04;;;;;;;14.90;12.27;;;;;;;14.91;94.72;98100.59;10415747;28;20502;-57
2022/09/07 06:34:02;;;;;;;17.27;13.35;;;;;;;15.05;91.95;98109.13;10417171;28;20483;-57
2022/09/07 06:39:02;;;;;;;14.23;10.80;;;;;;;15.24;92.13;98110.59;10400974;28;20032;-57
2022/09/07 06:44:01;;;;;;;13.20;9.90;;;;;;;15.34;90.34;98110.47;10397276;28;20612;-57
2022/09/07 06:49:00;;;;;;;12.68;9.40;;;;;;;15.49;89.74;98107.63;10375234;28;20136;-57
2022/09/07 06:54:00;;;;;;;;;;;;;;;15.68;89.42;98111.69;10393714;28;20036;-57
2022/09/07 06:58:59;;;;;;;11.52;8.30;;;;;;;15.83;86.66;98121.09;10416762;28;19954;-57
2022/09/07 07:03:59;;;;;;;;;;;;;;;16.02;86.75;98105.94;10417420;28;20067;-57
2022/09/07 07:08:58;;;;;;;12.90;9.27;;;;;;;16.21;85.67;98116.09;10416990;28;20378;-57
2022/09/07 07:13:58;;;;;;;15.15;7.88;;;;;;;16.39;84.01;98105.25;10417077;28;20431;-57
2022/09/07 07:18:57;;;;;;;10.15;8.45;;;;;;;16.66;84.05;98098.63;10414926;28;20060;-57
2022/09/07 07:23:56;;;;;;;;;;;;;;;16.88;81.40;98098.22;10415016;28;20032;-57
2022/09/07 07:28:55;;;;;;;11.67;8.10;;;;;;;17.09;80.85;98097.75;10414229;28;19912;-57
2022/09/07 07:33:54;;;;;;;11.80;8.30;;;;;;;17.33;80.22;98101.63;10414952;28;20052;-55
2022/09/07 07:38:54;;;;;;;14.68;8.20;;;;;;;17.58;77.88;98092.31;10396206;28;20067;-55
2022/09/07 07:43:57;;;;;;;11.63;7.38;;;;;;;17.80;77.69;98085.69;10407262;28;20067;-56
2022/09/07 07:48:56;;;;;;;10.32;7.43;;;;;;;18.11;76.53;98088.38;10415472;28;20084;-56
2022/09/07 07:53:55;;;;;;;13.95;7.15;;;;;;;18.39;74.82;98091.13;10398193;28;20100;-56
2022/09/07 07:58:54;;;;;;;11.35;6.88;;;;;;;18.77;72.26;98080.50;10414164;28;20063;-56
2022/09/07 08:03:53;;;;;;;11.50;6.88;;;;;;;19.11;69.91;98083.00;10415710;28;20031;-56
2022/09/07 08:08:52;;;;;;;10.02;6.50;;;;;;;19.53;68.34;98084.31;10415230;28;20025;-56
2022/09/07 08:13:51;;;;;;;9.90;5.55;;;;;;;19.85;65.14;98073.63;10415769;28;20016;-56
2022/09/07 08:18:52;;;;;;;9.38;5.72;;;;;;;20.16;62.79;98075.22;10415239;28;20088;-56
2022/09/07 08:23:51;;;;;;;9.00;4.85;;;;;;;20.27;57.64;98044.09;10414703;28;20075;-56
2022/09/07 08:28:50;;;;;;;5.95;4.53;;;;;;;20.74;55.59;98058.28;10414348;28;20039;-56
2022/09/07 08:33:49;;;;;;;7.63;4.90;;;;;;;21.02;54.23;98053.69;10414301;28;20035;-56
2022/09/07 08:38:48;;;;;;;9.88;5.82;;;;;;;21.31;53.74;98052.59;10415357;28;20021;-56
2022/09/07 08:43:59;;;;;;;10.90;4.85;;;;;;;21.53;51.61;98044.66;10414341;28;20464;-56
2022/09/07 08:49:02;;;;;;;5.15;4.32;;;;;;;21.76;51.32;98034.94;10395912;28;20084;-56
2022/09/07 08:54:01;;;;;;;6.82;4.25;;;;;;;22.05;50.15;98032.88;10415513;28;20063;-56
2022/09/07 08:59:10;;;;;;;5.18;4.20;;;;;;;22.31;49.43;98026.44;10412306;28;20744;-56
2022/09/07 09:04:23;;;;;;;6.05;4.32;;;;;;;22.49;48.36;98020.34;10423139;28;20068;-56
2022/09/07 09:09:22;;;;;;;7.07;4.60;;;;;;;22.71;48.07;98009.63;10421250;28;20075;-56
2022/09/07 09:14:28;;;;;;;8.18;4.63;;;;;;;22.80;45.55;98003.09;10422224;28;20020;-56
2022/09/07 09:19:45;;;;;;;7.57;4.25;;;;;;;22.91;45.85;98005.25;10421025;28;20483;-56
2022/09/07 09:24:52;;;;;;;4.55;4.10;;;;;;;23.10;45.74;98007.88;10420996;28;20060;-56
2022/09/07 09:29:51;;;;;;;6.68;4.55;;;;;;;23.21;44.95;98003.78;10419070;28;20480;-57
2022/09/07 09:35:04;;;;;;;7.25;4.80;;;;;;;23.41;43.93;97996.63;10418867;28;20610;-57
2022/09/07 09:40:05;;;;;;;6.82;4.13;;;;;;;23.54;44.16;98000.44;10387770;28;20048;-56
2022/09/07 09:45:15;;;;;;;4.88;4.10;;;;;;;23.63;43.01;97989.38;10414848;28;20553;-56
2022/09/07 09:50:30;;;;;;;7.28;4.00;;;;;;;23.80;43.62;97983.22;10374747;28;20515;-56
2022/09/07 09:55:33;;;;;;;4.63;3.83;;;;;;;23.94;43.02;97986.97;10375241;28;20441;-56
2022/09/07 10:00:33;;;;;;;4.65;3.70;;;;;;;24.06;43.08;97967.78;10375750;28;20075;-57
2022/09/07 10:05:41;;;;;;;6.65;3.92;;;;;;;24.20;41.08;97972.38;10364946;28;20068;-56
2022/09/07 10:10:59;;;;;;;4.80;3.63;;;;;;;24.38;40.97;97971.41;10418434;28;20072;-55
2022/09/07 10:16:02;;;;;;;4.50;3.55;;;;;;;24.42;40.18;97978.25;10418137;28;20483;-56
2022/09/07 10:21:25;;;;;;;4.65;3.67;;;;;;;24.44;39.60;97960.44;10418423;28;20075;-56
2022/09/07 10:26:33;;;;;;;5.82;4.00;;;;;;;24.56;39.32;97960.72;10418050;28;20072;-56
2022/09/07 10:31:41;;;;;;;3.40;3.10;;;;;;;24.67;38.57;97956.53;10417848;28;20067;-56
2022/09/07 10:36:48;;;;;;;3.27;2.97;;;;;;;24.83;39.20;97945.94;10417471;28;20071;-56
2022/09/07 10:42:00;;;;;;;5.15;3.40;;;;;;;24.99;37.51;97945.09;10417652;28;20302;-55
2022/09/07 10:47:06;;;;;;;4.43;3.17;;;;;;;25.10;37.49;97938.22;10417629;28;20056;-56
2022/09/07 10:52:08;;;;;;;4.68;3.30;;;;;;;25.28;37.46;97932.81;10418066;28;20523;-56
2022/09/07 10:57:13;;;;;;;5.50;3.65;;;;;;;25.33;38.24;97930.75;10417255;28;20067;-55
2022/09/07 11:02:30;;;;;;;5.28;3.33;;;;;;;25.52;38.03;97927.88;10416863;28;20067;-56
2022/09/07 11:08:04;;;;;;;6.88;3.72;;;;;;;25.71;37.15;97925.88;10415130;28;20495;-56
2022/09/07 11:13:07;;;;;;;5.75;3.08;;;;;;;25.83;36.83;97913.66;10416718;28;20522;-56
2022/09/07 11:18:36;;;;;;;3.28;2.95;;;;;;;26.01;36.90;97914.31;10416765;28;20067;-55
2022/09/07 11:23:40;;;;;;;;;;;;;;;26.11;36.14;97911.94;10415791;28;20078;-56
2022/09/07 11:28:54;;;;;;;3.50;2.90;;;;;;;26.14;36.41;97898.47;10413064;28;19996;-57
2022/09/07 11:34:17;;;;;;;3.97;3.10;;;;;;;26.27;36.12;97910.06;10414005;28;20146;-56
2022/09/07 11:39:22;;;;;;;4.70;3.03;;;;;;;26.31;35.65;97900.09;10413885;28;20068;-57
2022/09/07 11:44:51;;;;;;;5.90;3.28;;;;;;;26.44;35.78;97893.06;10414274;28;20064;-58
2022/09/07 11:49:54;;;;;;;3.80;3.05;;;;;;;26.52;35.04;97897.91;10380428;28;20084;-56
2022/09/07 11:55:03;;;;;;;2.95;2.42;;;;;;;26.55;33.75;97890.56;10414707;28;20064;-55
2022/09/07 12:00:10;;;;;;;4.03;3.25;;;;;;;26.70;34.70;97882.56;10414727;28;20553;-56
2022/09/07 12:05:15;;;;;;;3.58;2.85;;;;;;;26.76;34.21;97884.81;10414858;28;20102;-57
2022/09/07 12:10:54;;;;;;;3.95;2.83;;;;;;;26.84;35.21;97877.22;10414888;28;20086;-56
2022/09/07 12:16:09;;;;;;;3.45;3.00;;;;;;;26.95;34.13;97866.69;10397035;28;20071;-57
2022/09/07 12:21:32;;;;;;;4.88;3.10;;;;;;;27.02;34.67;97868.97;10394234;28;20063;-56
2022/09/07 12:26:37;;;;;;;4.55;3.00;;;;;;;27.07;34.42;97872.16;10415130;28;20060;-56
2022/09/07 12:31:56;;;;;;;3.50;3.20;;;;;;;27.12;34.70;97854.94;10415295;28;20051;-56
2022/09/07 12:37:16;;;;;;;3.22;2.90;;;;;;;27.14;34.59;97862.81;10423851;28;20067;-56
2022/09/07 12:42:22;;;;;;;5.90;2.95;;;;;;;27.17;33.29;97850.16;10409500;28;20076;-56
2022/09/07 12:47:29;;;;;;;3.30;2.85;;;;;;;27.23;34.12;97850.69;10423323;28;20498;-56
2022/09/07 12:52:31;;;;;;;3.22;2.70;;;;;;;27.32;33.70;97853.59;10423226;28;20678;-56
2022/09/07 12:57:57;;;;;;;4.07;3.30;;;;;;;27.34;33.80;97853.50;10423156;28;20064;-56
2022/09/07 13:02:56;;;;;;;4.20;2.85;;;;;;;27.34;33.44;97851.69;10422551;28;20068;-56
2022/09/07 13:08:14;;;;;;;3.45;2.90;;;;;;;27.32;32.72;97842.09;10422326;28;20058;-56
2022/09/07 13:13:16;;;;;;;3.97;2.60;;;;;;;27.37;33.06;97838.13;10422608;28;20067;-56
2022/09/07 13:18:25;;;;;;;6.00;2.88;;;;;;;27.48;32.53;97840.13;10422433;28;20060;-56
2022/09/07 13:23:24;;;;;;;5.43;2.80;;;;;;;27.63;32.03;97840.84;10421756;28;20064;-56
2022/09/07 13:28:40;;;;;;;6.45;2.63;;;;;;;27.72;31.74;97831.38;10421384;28;20158;-56
2022/09/07 13:33:46;;;;;;;3.30;2.50;;;;;;;27.79;31.24;97836.16;10421795;28;20064;-56
2022/09/07 13:38:46;;;;;;;3.00;2.70;;;;;;;27.61;31.45;97825.00;10421125;28;20056;-56
2022/09/07 13:43:49;;;;;;;5.68;3.20;;;;;;;27.63;31.93;97822.19;10421186;28;20067;-55
2022/09/07 13:48:55;;;;;;;6.00;2.70;;;;;;;27.65;31.04;97820.28;10420701;28;20522;-56
2022/09/07 13:54:14;;;;;;;4.68;3.13;;;;;;;27.69;30.81;97832.44;10421282;28;20467;-55
2022/09/07 13:59:23;;;;;;;4.75;2.63;;;;;;;27.68;31.30;97814.75;10420898;28;20802;-55
2022/09/07 14:04:26;;;;;;;3.03;2.72;;;;;;;27.75;31.28;97817.81;10419014;28;20052;-55
2022/09/07 14:09:25;;;;;;;3.30;3.00;;;;;;;27.70;30.08;97810.13;10419236;28;20075;-57
2022/09/07 14:14:29;;;;;;;3.60;2.85;;;;;;;27.67;31.24;97806.84;10420310;28;20078;-56
2022/09/07 14:19:49;;;;;;;3.78;3.13;;;;;;;27.38;30.66;97807.03;10419748;28;20103;-55
2022/09/07 14:24:51;;;;;;;4.03;2.85;;;;;;;27.31;31.39;97803.94;10418700;28;20075;-55
2022/09/07 14:29:51;;;;;;;3.10;2.80;;;;;;;27.33;31.52;97799.34;10419299;28;20067;-55
2022/09/07 14:34:51;;;;;;;3.70;2.92;;;;;;;27.23;31.98;97808.91;10417665;28;20056;-55
2022/09/07 14:39:51;;;;;;;4.53;2.67;;;;;;;27.10;31.47;97802.72;10417199;28;20075;-55
2022/09/07 14:45:19;;;;;;;3.90;3.08;;;;;;;26.99;31.68;97798.97;10417102;28;20494;-55
2022/09/07 14:50:25;;;;;;;5.05;3.08;;;;;;;26.99;32.44;97796.31;10416318;28;20080;-55
2022/09/07 14:55:29;;;;;;;5.60;2.58;;;;;;;26.92;32.28;97804.81;10416025;28;20064;-55
2022/09/07 15:00:31;;;;;;;5.53;2.70;;;;;;;26.93;32.90;97801.19;10384213;28;20079;-55
2022/09/07 15:05:30;;;;;;;4.55;2.95;;;;;;;26.90;33.54;97791.59;10415595;28;20064;-55
2022/09/07 15:10:38;;;;;;;2.85;2.58;;;;;;;26.83;33.77;97800.06;10416254;28;20037;-55
2022/09/07 15:15:40;;;;;;;2.88;2.50;;;;;;;26.60;33.23;97785.59;10415592;28;20060;-55
2022/09/07 15:20:42;;;;;;;3.05;2.55;;;;;;;26.51;33.78;97795.91;10416663;28;20476;-55
2022/09/07 15:25:44;;;;;;;3.35;2.47;;;;;;;26.45;33.75;97796.31;10416085;28;20462;-55
2022/09/07 15:30:43;;;;;;;3.38;2.53;;;;;;;26.32;33.60;97800.69;10412005;28;20075;-55
2022/09/07 15:35:42;;;;;;;3.30;2.70;;;;;;;26.16;34.52;97803.47;10415950;28;20036;-57
2022/09/07 15:40:52;;;;;;;4.53;2.50;;;;;;;26.02;34.78;97803.47;10414591;28;20514;-55
2022/09/07 15:45:51;;;;;;;6.07;3.30;;;;;;;25.86;34.83;97801.78;10413748;28;20493;-56
2022/09/07 15:50:50;;;;;;;6.15;4.68;;;;;;;25.70;35.18;97799.22;10395864;28;20080;-56
2022/09/07 15:55:53;;;;;;;3.58;2.88;;;;;;;25.47;35.25;97791.78;10413629;28;20064;-55
2022/09/07 16:00:52;;;;;;;5.45;2.65;;;;;;;25.25;35.57;97809.03;10412923;28;20471;-55
2022/09/07 16:05:51;;;;;;;4.57;3.05;;;;;;;24.99;35.67;97807.03;10411363;28;20510;-56
2022/09/07 16:10:51;;;;;;;4.32;3.35;;;;;;;24.72;36.02;97804.19;10419592;28;20067;-56
2022/09/07 16:15:50;;;;;;;5.03;3.00;;;;;;;24.43;36.42;97807.56;10421104;28;20475;-56
2022/09/07 16:20:49;;;;;;;6.07;3.70;;;;;;;24.16;36.68;97804.59;10421536;28;20479;-56
2022/09/07 16:25:57;;;;;;;3.80;2.58;;;;;;;23.88;37.17;97802.59;10420176;28;20075;-56
2022/09/07 16:30:56;;;;;;;4.87;2.50;;;;;;;23.59;37.40;97812.97;10420975;28;20068;-56
2022/09/07 16:35:57;;;;;;;4.80;2.58;;;;;;;23.35;38.07;97800.97;10419405;28;20025;-56
2022/09/07 16:40:59;;;;;;;2.85;2.55;;;;;;;23.05;38.86;97798.97;10422320;28;20091;-56
2022/09/07 16:46:06;;;;;;;5.30;2.83;;;;;;;22.82;39.14;97789.56;10421984;28;20067;-56
2022/09/07 16:51:05;;;;;;;2.92;2.20;;;;;;;22.57;39.52;97805.75;10421390;28;20844;-56
2022/09/07 16:56:13;;;;;;;6.43;2.78;;;;;;;22.37;40.06;97809.38;10421707;28;20071;-56
2022/09/07 17:01:15;;;;;;;3.95;2.70;;;;;;;22.17;40.32;97807.66;10421012;28;20525;-56
2022/09/07 17:06:15;;;;;;;6.40;3.05;;;;;;;22.01;41.07;97810.16;10415371;28;20060;-56
2022/09/07 17:11:17;;;;;;;4.10;2.83;;;;;;;21.91;41.50;97817.63;10418238;28;20074;-56
2022/09/07 17:16:22;;;;;;;4.55;2.90;;;;;;;21.75;42.53;97816.59;10415699;28;20071;-56
2022/09/07 17:21:21;;;;;;;8.13;3.03;;;;;;;21.66;42.36;97830.22;10412587;28;20079;-56
2022/09/07 17:26:21;;;;;;;5.35;3.25;;;;;;;21.59;42.80;97836.69;10413983;28;20710;-56
2022/09/07 17:31:23;;;;;;;5.10;3.53;;;;;;;21.50;43.29;97843.22;10416949;28;20585;-56
2022/09/07 17:36:23;;;;;;;7.18;3.33;;;;;;;21.41;43.40;97849.78;10418274;28;20068;-56
2022/09/07 17:41:24;;;;;;;6.65;3.30;;;;;;;21.29;43.53;97851.19;10419106;28;20068;-56
2022/09/07 17:46:25;;;;;;;6.32;3.50;;;;;;;21.19;44.06;97849.81;10419040;28;20119;-55
2022/09/07 17:51:27;;;;;;;5.07;3.58;;;;;;;21.16;44.11;97875.47;10418054;28;20095;-56
2022/09/07 17:56:26;;;;;;;6.25;3.70;;;;;;;21.09;44.09;97861.69;10400501;28;20072;-56
2022/09/07 18:01:25;;;;;;;6.35;3.95;;;;;;;21.02;44.38;97873.41;10418769;28;20204;-56
2022/09/07 18:06:25;;;;;;;6.35;3.70;;;;;;;20.96;44.62;97882.44;10413762;28;20064;-56
2022/09/07 18:11:24;;;;;;;6.47;3.45;;;;;;;20.92;44.66;97894.03;10418467;28;20471;-56
2022/09/07 18:16:31;;;;;;;6.10;4.40;;;;;;;20.83;44.86;97904.97;10388745;28;20431;-56
2022/09/07 18:21:33;;;;;;;7.18;3.83;;;;;;;20.73;44.83;97914.13;10377829;28;20106;-55
2022/09/07 18:26:34;;;;;;;5.53;3.90;;;;;;;20.63;45.17;97897.81;10417314;28;20059;-55
2022/09/07 18:31:33;;;;;;;5.90;3.75;;;;;;;20.57;45.05;97900.72;10384067;28;20496;-55
2022/09/07 18:36:34;;;;;;;5.40;3.92;;;;;;;20.50;45.09;97902.72;10416500;28;20024;-56
2022/09/07 18:41:33;;;;;;;5.95;3.30;;;;;;;20.48;45.08;97905.41;10409782;28;20089;-57
2022/09/07 18:46:32;;;;;;;6.55;3.60;;;;;;;20.45;44.87;97908.19;10394017;28;20480;-56
2022/09/07 18:51:32;;;;;;;6.10;3.53;;;;;;;20.44;45.23;97901.16;10415223;28;20549;-56
2022/09/07 18:56:30;;;;;;;5.50;3.53;;;;;;;20.36;45.16;97895.31;10413624;28;20056;-56
2022/09/07 19:01:29;;;;;;;5.25;3.40;;;;;;;20.35;44.90;97892.72;10411822;28;20051;-56
2022/09/07 19:06:28;;;;;;;7.57;3.35;;;;;;;20.31;45.18;97896.41;10414891;28;20462;-56
2022/09/07 19:11:27;;;;;;;6.10;3.40;;;;;;;20.26;44.73;97905.34;10393708;28;20036;-56
2022/09/07 19:16:27;;;;;;;8.18;3.47;;;;;;;20.18;45.55;97891.59;10373300;28;20104;-54
2022/09/07 19:21:29;;;;;;;5.45;3.47;;;;;;;20.13;46.21;97892.69;10375395;28;20072;-57
2022/09/07 19:26:30;;;;;;;10.23;4.00;;;;;;;19.95;47.17;97908.25;10415210;28;20068;-56
2022/09/07 19:31:30;;;;;;;6.38;4.18;;;;;;;19.77;48.15;97915.06;10414492;28;20063;-56
2022/09/07 19:36:33;;;;;;;6.07;4.05;;;;;;;19.55;48.62;97906.16;10414036;28;20112;-56
2022/09/07 19:41:33;;;;;;;6.00;4.68;;;;;;;19.34;49.53;97908.59;10413907;28;20059;-56
2022/09/07 19:46:32;;;;;;;8.32;4.60;;;;;;;19.01;49.87;97886.91;10411008;28;20459;-56
2022/09/07 19:51:31;;;;;;;7.75;4.55;;;;;;;18.94;50.55;97902.03;10412504;28;20095;-56
2022/09/07 19:56:29;;;;;;;8.02;4.18;;;;;;;18.67;50.96;97902.91;10410746;28;20060;-56
2022/09/07 20:01:29;;;;;;;7.13;4.43;;;;;;;18.66;51.39;97914.28;10413513;28;20099;-56
2022/09/07 20:06:31;;;;;;;5.25;4.10;;;;;;;18.61;51.19;97912.66;10413751;28;20064;-56
2022/09/07 20:11:31;;;;;;;6.22;4.05;;;;;;;18.47;51.75;97909.59;10414002;28;20063;-56
2022/09/07 20:16:30;;;;;;;7.40;3.53;;;;;;;18.39;51.72;97920.34;10413067;28;20503;-56
2022/09/07 20:21:29;;;;;;;6.90;3.80;;;;;;;18.35;51.37;97909.97;10413228;28;20510;-56
2022/09/07 20:26:29;;;;;;;6.72;4.00;;;;;;;18.23;52.47;97908.56;10413443;28;20028;-56
2022/09/07 20:31:28;;;;;;;6.25;4.40;;;;;;;18.20;53.40;97903.41;10413343;28;20075;-56
2022/09/07 20:36:27;;;;;;;8.57;6.15;;;;;;;18.04;55.34;97900.38;10413837;28;20060;-56
2022/09/07 20:41:28;;;;;;;11.15;6.85;;;;;;;17.84;57.36;97911.41;10413129;28;20107;-55
2022/09/07 20:46:29;;;;;;;7.10;6.20;;;;;;;17.68;59.01;97908.34;10412987;28;20498;-55
2022/09/07 20:51:28;;;;;;;14.38;7.93;;;;;;;17.37;61.31;97899.56;10413022;28;20084;-56
2022/09/07 20:56:27;;;;;;;10.68;7.50;;;;;;;17.18;63.10;97917.53;10417873;28;20104;-56
2022/09/07 21:01:28;;;;;;;10.43;6.78;;;;;;;16.99;63.71;97927.59;10402035;28;20076;-56
2022/09/07 21:06:28;;;;;;;10.95;6.35;;;;;;;16.86;63.87;97914.78;10417776;28;20391;-56
2022/09/07 21:11:30;;;;;;;7.88;6.20;;;;;;;16.73;64.99;97921.19;10402167;28;20129;-55
2022/09/07 21:16:29;;;;;;;10.05;6.28;;;;;;;16.73;65.03;97919.41;10419870;28;20071;-55
2022/09/07 21:21:32;;;;;;;6.68;5.20;;;;;;;16.54;67.15;97920.75;10419773;28;20064;-56
2022/09/07 21:26:31;;;;;;;7.78;5.05;;;;;;;16.29;69.00;97925.63;10419494;28;20869;-56
2022/09/07 21:31:32;;;;;;;7.47;5.03;;;;;;;16.04;71.00;97920.94;10419487;28;20064;-55
2022/09/07 21:36:32;;;;;;;6.18;4.80;;;;;;;15.80;71.98;97929.25;10419224;28;20067;-55
2022/09/07 21:41:32;;;;;;;6.60;5.13;;;;;;;15.65;73.11;97923.38;10419554;28;20466;-56
2022/09/07 21:46:32;;;;;;;7.60;5.07;;;;;;;15.48;74.37;97930.66;10419119;28;20769;-57
2022/09/07 21:51:31;;;;;;;8.52;5.55;;;;;;;15.45;74.39;97933.34;10418337;28;20095;-56
2022/09/07 21:56:30;;;;;;;;;;;;;;;15.36;75.07;97917.81;10418969;28;20112;-56
2022/09/07 22:01:30;;;;;;;7.03;5.25;;;;;;;15.25;75.94;97923.25;10418535;28;19958;-56
2022/09/07 22:06:31;;;;;;;9.27;6.00;;;;;;;15.10;77.08;97913.88;10415136;28;20068;-56
2022/09/07 22:11:30;;;;;;;8.65;5.70;;;;;;;15.08;76.80;97915.66;10414380;28;20419;-55
2022/09/07 22:16:31;;;;;;;7.63;6.03;;;;;;;14.98;77.85;97922.78;10415061;28;20071;-55
2022/09/07 22:21:30;;;;;;;6.70;5.85;;;;;;;14.71;79.73;97915.38;10396978;28;20579;-55
2022/09/07 22:26:35;;;;;;;8.23;5.97;;;;;;;14.68;79.86;97911.03;10416731;28;20503;-55
2022/09/07 22:31:35;;;;;;;7.00;5.70;;;;;;;14.58;80.09;97909.44;10417407;28;20067;-55
2022/09/07 22:36:40;;;;;;;9.85;6.63;;;;;;;14.49;81.73;97910.44;10416733;28;20091;-55
2022/09/07 22:41:40;;;;;;;9.60;6.18;;;;;;;14.36;82.54;97908.91;10416542;28;20064;-55
2022/09/07 22:46:41;;;;;;;9.30;6.10;;;;;;;14.43;81.25;97896.59;10416588;28;20079;-55
2022/09/07 22:51:40;;;;;;;7.30;6.05;;;;;;;14.42;81.36;97877.47;10415509;28;20495;-55
2022/09/07 22:56:39;;;;;;;8.18;6.72;;;;;;;14.48;81.07;97886.97;10415886;28;20055;-55
2022/09/07 23:01:39;;;;;;;9.20;6.60;;;;;;;14.45;81.90;97879.16;10416098;28;20075;-55
2022/09/07 23:06:42;;;;;;;10.07;7.20;;;;;;;14.46;81.60;97878.28;10415015;28;20079;-55
2022/09/07 23:11:42;;;;;;;9.88;7.50;;;;;;;14.36;82.28;97881.03;10415232;28;20507;-55
2022/09/07 23:16:42;;;;;;;11.82;7.70;;;;;;;14.37;82.15;97877.53;10414868;28;20059;-54
2022/09/07 23:21:42;;;;;;;6.40;5.40;;;;;;;14.25;83.16;97874.25;10414885;28;20063;-55